sensor_id;sensor_type;location;lat;lon;timestamp;P1;durP1;ratioP1;P2;durP2;ratioP2
74926;SDS011;63488;48.092;-1.640;2023-12-07T00:01:50;10.40;;;8.35;;
74926;SDS011;63488;48.092;-1.640;2023-12-07T00:04:16;13.00;;;8.73;;
74926;SDS011;63488;48.092;-1.640;2023-12-07T00:06:41;11.82;;;8.05;;
74926;SDS011;63488;48.092;-1.640;2023-12-07T00:09:06;12.98;;;7.60;;
74926;SDS011;63488;48.092;-1.640;2023-12-07T00:11:32;11.65;;;7.95;;
74926;SDS011;63488;48.092;-1.640;2023-12-07T00:13:57;10.70;;;7.55;;
74926;SDS011;63488;48.092;-1.640;2023-12-07T00:16:22;11.25;;;8.18;;
74926;SDS011;63488;48.092;-1.640;2023-12-07T00:18:48;11.75;;;7.03;;
74926;SDS011;63488;48.092;-1.640;2023-12-07T00:21:13;12.32;;;7.80;;
74926;SDS011;63488;48.092;-1.640;2023-12-07T00:23:38;11.88;;;7.45;;
74926;SDS011;63488;48.092;-1.640;2023-12-07T00:26:04;10.45;;;6.93;;
74926;SDS011;63488;48.092;-1.640;2023-12-07T00:28:29;11.40;;;7.63;;
74926;SDS011;63488;48.092;-1.640;2023-12-07T00:30:55;11.93;;;7.97;;
74926;SDS011;63488;48.092;-1.640;2023-12-07T00:33:20;10.75;;;7.28;;
74926;SDS011;63488;48.092;-1.640;2023-12-07T00:35:47;9.80;;;6.85;;
74926;SDS011;63488;48.092;-1.640;2023-12-07T00:38:12;9.80;;;6.43;;
74926;SDS011;63488;48.092;-1.640;2023-12-07T00:40:37;11.88;;;7.00;;
74926;SDS011;63488;48.092;-1.640;2023-12-07T00:43:05;10.18;;;6.55;;
74926;SDS011;63488;48.092;-1.640;2023-12-07T00:45:30;9.25;;;6.60;;
74926;SDS011;63488;48.092;-1.640;2023-12-07T00:47:55;10.25;;;6.28;;
74926;SDS011;63488;48.092;-1.640;2023-12-07T00:50:21;10.98;;;6.22;;
74926;SDS011;63488;48.092;-1.640;2023-12-07T00:52:47;8.60;;;6.70;;
74926;SDS011;63488;48.092;-1.640;2023-12-07T00:55:12;10.85;;;6.43;;
74926;SDS011;63488;48.092;-1.640;2023-12-07T00:57:37;10.05;;;6.53;;
74926;SDS011;63488;48.092;-1.640;2023-12-07T01:00:03;9.88;;;5.80;;
74926;SDS011;63488;48.092;-1.640;2023-12-07T01:02:29;10.32;;;6.40;;
74926;SDS011;63488;48.092;-1.640;2023-12-07T01:04:54;8.90;;;6.50;;
74926;SDS011;63488;48.092;-1.640;2023-12-07T01:07:20;10.93;;;6.47;;
74926;SDS011;63488;48.092;-1.640;2023-12-07T01:09:46;9.20;;;6.20;;
74926;SDS011;63488;48.092;-1.640;2023-12-07T01:12:11;11.38;;;6.30;;
74926;SDS011;63488;48.092;-1.640;2023-12-07T01:14:37;10.13;;;6.10;;
74926;SDS011;63488;48.092;-1.640;2023-12-07T01:17:03;10.05;;;5.93;;
74926;SDS011;63488;48.092;-1.640;2023-12-07T01:19:28;10.85;;;6.15;;
74926;SDS011;63488;48.092;-1.640;2023-12-07T01:21:53;9.40;;;5.82;;
74926;SDS011;63488;48.092;-1.640;2023-12-07T01:24:19;10.00;;;5.70;;
74926;SDS011;63488;48.092;-1.640;2023-12-07T01:26:44;7.80;;;5.40;;
74926;SDS011;63488;48.092;-1.640;2023-12-07T01:29:09;8.73;;;5.60;;
74926;SDS011;63488;48.092;-1.640;2023-12-07T01:31:35;9.60;;;5.60;;
74926;SDS011;63488;48.092;-1.640;2023-12-07T01:34:00;8.75;;;5.28;;
74926;SDS011;63488;48.092;-1.640;2023-12-07T01:36:26;7.93;;;5.20;;
74926;SDS011;63488;48.092;-1.640;2023-12-07T01:38:51;9.63;;;5.05;;
74926;SDS011;63488;48.092;-1.640;2023-12-07T01:41:17;9.85;;;5.13;;
74926;SDS011;63488;48.092;-1.640;2023-12-07T01:43:46;7.22;;;4.38;;
74926;SDS011;63488;48.092;-1.640;2023-12-07T01:46:11;6.97;;;4.97;;
74926;SDS011;63488;48.092;-1.640;2023-12-07T01:48:37;6.95;;;4.40;;
74926;SDS011;63488;48.092;-1.640;2023-12-07T01:51:02;8.95;;;4.90;;
74926;SDS011;63488;48.092;-1.640;2023-12-07T01:53:28;7.95;;;4.60;;
74926;SDS011;63488;48.092;-1.640;2023-12-07T01:55:54;6.45;;;4.45;;
74926;SDS011;63488;48.092;-1.640;2023-12-07T01:58:20;8.40;;;4.53;;
74926;SDS011;63488;48.092;-1.640;2023-12-07T02:00:46;8.13;;;4.32;;
74926;SDS011;63488;48.092;-1.640;2023-12-07T02:03:12;7.10;;;3.80;;
74926;SDS011;63488;48.092;-1.640;2023-12-07T02:05:37;11.98;;;5.10;;
74926;SDS011;63488;48.092;-1.640;2023-12-07T02:08:06;7.68;;;4.40;;
74926;SDS011;63488;48.092;-1.640;2023-12-07T02:10:31;7.05;;;4.25;;
74926;SDS011;63488;48.092;-1.640;2023-12-07T02:12:56;9.00;;;4.05;;
74926;SDS011;63488;48.092;-1.640;2023-12-07T02:15:22;8.95;;;4.22;;
74926;SDS011;63488;48.092;-1.640;2023-12-07T02:20:34;7.85;;;4.50;;
74926;SDS011;63488;48.092;-1.640;2023-12-07T02:23:02;7.50;;;4.10;;
74926;SDS011;63488;48.092;-1.640;2023-12-07T02:25:31;7.53;;;4.03;;
74926;SDS011;63488;48.092;-1.640;2023-12-07T02:27:57;7.55;;;3.92;;
74926;SDS011;63488;48.092;-1.640;2023-12-07T02:30:22;5.28;;;3.38;;
74926;SDS011;63488;48.092;-1.640;2023-12-07T02:32:47;8.57;;;4.18;;
74926;SDS011;63488;48.092;-1.640;2023-12-07T02:35:13;5.88;;;3.40;;
74926;SDS011;63488;48.092;-1.640;2023-12-07T02:37:48;6.25;;;3.60;;
74926;SDS011;63488;48.092;-1.640;2023-12-07T02:40:16;8.13;;;3.60;;
74926;SDS011;63488;48.092;-1.640;2023-12-07T02:42:42;6.35;;;2.95;;
74926;SDS011;63488;48.092;-1.640;2023-12-07T02:45:08;5.07;;;3.47;;
74926;SDS011;63488;48.092;-1.640;2023-12-07T02:47:34;4.93;;;2.97;;
74926;SDS011;63488;48.092;-1.640;2023-12-07T02:50:00;6.00;;;3.13;;
74926;SDS011;63488;48.092;-1.640;2023-12-07T02:52:25;6.00;;;3.10;;
74926;SDS011;63488;48.092;-1.640;2023-12-07T02:54:50;7.40;;;3.13;;
74926;SDS011;63488;48.092;-1.640;2023-12-07T02:57:16;4.72;;;2.95;;
74926;SDS011;63488;48.092;-1.640;2023-12-07T02:59:41;7.40;;;3.53;;
74926;SDS011;63488;48.092;-1.640;2023-12-07T03:02:06;4.88;;;2.90;;
74926;SDS011;63488;48.092;-1.640;2023-12-07T03:04:32;6.53;;;2.80;;
74926;SDS011;63488;48.092;-1.640;2023-12-07T03:06:57;5.22;;;2.80;;
74926;SDS011;63488;48.092;-1.640;2023-12-07T03:09:23;5.15;;;2.83;;
74926;SDS011;63488;48.092;-1.640;2023-12-07T03:11:48;6.10;;;2.55;;
74926;SDS011;63488;48.092;-1.640;2023-12-07T03:14:13;4.60;;;2.67;;
74926;SDS011;63488;48.092;-1.640;2023-12-07T03:16:39;4.88;;;2.45;;
74926;SDS011;63488;48.092;-1.640;2023-12-07T03:19:04;3.58;;;2.42;;
74926;SDS011;63488;48.092;-1.640;2023-12-07T03:21:29;6.28;;;3.00;;
74926;SDS011;63488;48.092;-1.640;2023-12-07T03:23:55;4.72;;;2.65;;
74926;SDS011;63488;48.092;-1.640;2023-12-07T03:26:20;5.22;;;2.90;;
74926;SDS011;63488;48.092;-1.640;2023-12-07T03:28:46;5.82;;;2.70;;
74926;SDS011;63488;48.092;-1.640;2023-12-07T03:31:11;6.82;;;2.60;;
74926;SDS011;63488;48.092;-1.640;2023-12-07T03:33:36;4.53;;;2.78;;
74926;SDS011;63488;48.092;-1.640;2023-12-07T03:36:03;5.93;;;2.42;;
74926;SDS011;63488;48.092;-1.640;2023-12-07T03:38:28;5.40;;;2.60;;
74926;SDS011;63488;48.092;-1.640;2023-12-07T03:40:54;5.70;;;2.67;;
74926;SDS011;63488;48.092;-1.640;2023-12-07T03:43:19;8.30;;;2.55;;
74926;SDS011;63488;48.092;-1.640;2023-12-07T03:45:45;4.68;;;2.38;;
74926;SDS011;63488;48.092;-1.640;2023-12-07T03:48:11;8.65;;;2.50;;
74926;SDS011;63488;48.092;-1.640;2023-12-07T03:50:36;6.88;;;2.70;;
74926;SDS011;63488;48.092;-1.640;2023-12-07T03:53:01;4.45;;;2.33;;
74926;SDS011;63488;48.092;-1.640;2023-12-07T03:55:27;5.30;;;2.38;;
74926;SDS011;63488;48.092;-1.640;2023-12-07T03:57:52;5.25;;;2.15;;
74926;SDS011;63488;48.092;-1.640;2023-12-07T04:00:18;8.43;;;2.13;;
74926;SDS011;63488;48.092;-1.640;2023-12-07T04:02:43;3.95;;;2.10;;
74926;SDS011;63488;48.092;-1.640;2023-12-07T04:05:09;5.57;;;2.63;;
74926;SDS011;63488;48.092;-1.640;2023-12-07T04:07:34;3.72;;;2.20;;
74926;SDS011;63488;48.092;-1.640;2023-12-07T04:09:59;6.38;;;2.20;;
74926;SDS011;63488;48.092;-1.640;2023-12-07T04:12:25;4.70;;;1.88;;
74926;SDS011;63488;48.092;-1.640;2023-12-07T04:14:50;4.72;;;2.10;;
74926;SDS011;63488;48.092;-1.640;2023-12-07T04:17:17;6.80;;;2.05;;
74926;SDS011;63488;48.092;-1.640;2023-12-07T04:19:42;5.28;;;2.13;;
74926;SDS011;63488;48.092;-1.640;2023-12-07T04:22:07;6.15;;;2.10;;
74926;SDS011;63488;48.092;-1.640;2023-12-07T04:24:33;5.38;;;2.17;;
74926;SDS011;63488;48.092;-1.640;2023-12-07T04:26:58;4.97;;;1.85;;
74926;SDS011;63488;48.092;-1.640;2023-12-07T04:29:23;3.95;;;1.83;;
74926;SDS011;63488;48.092;-1.640;2023-12-07T04:31:49;5.03;;;1.80;;
74926;SDS011;63488;48.092;-1.640;2023-12-07T04:34:14;5.45;;;2.03;;
74926;SDS011;63488;48.092;-1.640;2023-12-07T04:36:39;6.57;;;1.90;;
74926;SDS011;63488;48.092;-1.640;2023-12-07T04:39:05;5.35;;;2.00;;
74926;SDS011;63488;48.092;-1.640;2023-12-07T04:41:30;6.15;;;1.90;;
74926;SDS011;63488;48.092;-1.640;2023-12-07T04:43:55;7.32;;;1.80;;
74926;SDS011;63488;48.092;-1.640;2023-12-07T04:46:21;6.18;;;1.85;;
74926;SDS011;63488;48.092;-1.640;2023-12-07T04:48:46;4.90;;;1.98;;
74926;SDS011;63488;48.092;-1.640;2023-12-07T04:51:11;6.65;;;2.00;;
74926;SDS011;63488;48.092;-1.640;2023-12-07T04:53:37;4.50;;;2.03;;
74926;SDS011;63488;48.092;-1.640;2023-12-07T04:56:02;4.38;;;1.90;;
74926;SDS011;63488;48.092;-1.640;2023-12-07T04:58:27;3.72;;;1.98;;
74926;SDS011;63488;48.092;-1.640;2023-12-07T05:00:54;4.68;;;1.90;;
74926;SDS011;63488;48.092;-1.640;2023-12-07T05:03:20;4.80;;;2.00;;
74926;SDS011;63488;48.092;-1.640;2023-12-07T05:05:46;5.88;;;2.13;;
74926;SDS011;63488;48.092;-1.640;2023-12-07T05:08:11;5.32;;;1.75;;
74926;SDS011;63488;48.092;-1.640;2023-12-07T05:10:36;4.22;;;2.00;;
74926;SDS011;63488;48.092;-1.640;2023-12-07T05:13:02;5.20;;;2.03;;
74926;SDS011;63488;48.092;-1.640;2023-12-07T05:15:27;7.72;;;2.10;;
74926;SDS011;63488;48.092;-1.640;2023-12-07T05:17:52;5.22;;;1.60;;
74926;SDS011;63488;48.092;-1.640;2023-12-07T05:20:18;6.53;;;1.90;;
74926;SDS011;63488;48.092;-1.640;2023-12-07T05:22:47;4.70;;;2.10;;
74926;SDS011;63488;48.092;-1.640;2023-12-07T05:25:13;3.13;;;1.77;;
74926;SDS011;63488;48.092;-1.640;2023-12-07T05:27:38;5.20;;;1.80;;
74926;SDS011;63488;48.092;-1.640;2023-12-07T05:30:03;3.65;;;1.85;;
74926;SDS011;63488;48.092;-1.640;2023-12-07T05:32:29;6.65;;;1.90;;
74926;SDS011;63488;48.092;-1.640;2023-12-07T05:34:54;5.60;;;1.88;;
74926;SDS011;63488;48.092;-1.640;2023-12-07T05:37:20;5.03;;;1.77;;
74926;SDS011;63488;48.092;-1.640;2023-12-07T05:39:45;4.30;;;1.73;;
74926;SDS011;63488;48.092;-1.640;2023-12-07T05:42:10;5.75;;;1.65;;
74926;SDS011;63488;48.092;-1.640;2023-12-07T05:44:36;5.03;;;1.80;;
74926;SDS011;63488;48.092;-1.640;2023-12-07T05:47:01;3.47;;;1.45;;
74926;SDS011;63488;48.092;-1.640;2023-12-07T05:49:26;4.28;;;1.50;;
74926;SDS011;63488;48.092;-1.640;2023-12-07T05:51:52;4.65;;;1.73;;
74926;SDS011;63488;48.092;-1.640;2023-12-07T05:54:18;5.32;;;1.67;;
74926;SDS011;63488;48.092;-1.640;2023-12-07T05:56:45;3.70;;;1.38;;
74926;SDS011;63488;48.092;-1.640;2023-12-07T05:59:11;6.22;;;1.98;;
74926;SDS011;63488;48.092;-1.640;2023-12-07T06:01:37;4.45;;;1.50;;
74926;SDS011;63488;48.092;-1.640;2023-12-07T06:04:02;5.30;;;1.70;;
74926;SDS011;63488;48.092;-1.640;2023-12-07T06:06:27;4.07;;;1.42;;
74926;SDS011;63488;48.092;-1.640;2023-12-07T06:08:53;4.45;;;1.73;;
74926;SDS011;63488;48.092;-1.640;2023-12-07T06:11:19;4.07;;;1.48;;
74926;SDS011;63488;48.092;-1.640;2023-12-07T06:13:44;3.10;;;1.60;;
74926;SDS011;63488;48.092;-1.640;2023-12-07T06:16:12;4.72;;;1.77;;
74926;SDS011;63488;48.092;-1.640;2023-12-07T06:18:39;4.70;;;1.67;;
74926;SDS011;63488;48.092;-1.640;2023-12-07T06:21:04;3.63;;;1.58;;
74926;SDS011;63488;48.092;-1.640;2023-12-07T06:23:29;3.05;;;1.40;;
74926;SDS011;63488;48.092;-1.640;2023-12-07T06:25:55;6.15;;;1.60;;
74926;SDS011;63488;48.092;-1.640;2023-12-07T06:28:20;3.53;;;1.58;;
74926;SDS011;63488;48.092;-1.640;2023-12-07T06:30:45;3.50;;;1.52;;
74926;SDS011;63488;48.092;-1.640;2023-12-07T06:33:11;3.88;;;1.60;;
74926;SDS011;63488;48.092;-1.640;2023-12-07T06:35:37;4.05;;;1.48;;
74926;SDS011;63488;48.092;-1.640;2023-12-07T06:38:04;2.72;;;1.50;;
74926;SDS011;63488;48.092;-1.640;2023-12-07T06:40:32;4.40;;;1.50;;
74926;SDS011;63488;48.092;-1.640;2023-12-07T06:42:59;3.08;;;1.52;;
74926;SDS011;63488;48.092;-1.640;2023-12-07T06:45:26;4.97;;;1.50;;
74926;SDS011;63488;48.092;-1.640;2023-12-07T06:47:53;3.58;;;1.45;;
74926;SDS011;63488;48.092;-1.640;2023-12-07T06:50:19;5.57;;;1.67;;
74926;SDS011;63488;48.092;-1.640;2023-12-07T06:52:46;6.05;;;1.73;;
74926;SDS011;63488;48.092;-1.640;2023-12-07T06:55:11;6.13;;;1.70;;
74926;SDS011;63488;48.092;-1.640;2023-12-07T06:57:37;5.35;;;1.80;;
74926;SDS011;63488;48.092;-1.640;2023-12-07T07:00:02;3.05;;;1.30;;
74926;SDS011;63488;48.092;-1.640;2023-12-07T07:02:31;3.30;;;1.60;;
74926;SDS011;63488;48.092;-1.640;2023-12-07T07:04:56;4.95;;;1.70;;
74926;SDS011;63488;48.092;-1.640;2023-12-07T07:07:21;7.32;;;1.75;;
74926;SDS011;63488;48.092;-1.640;2023-12-07T07:09:47;3.42;;;1.83;;
74926;SDS011;63488;48.092;-1.640;2023-12-07T07:12:12;3.63;;;1.83;;
74926;SDS011;63488;48.092;-1.640;2023-12-07T07:14:38;4.18;;;2.10;;
74926;SDS011;63488;48.092;-1.640;2023-12-07T07:17:03;5.07;;;1.77;;
74926;SDS011;63488;48.092;-1.640;2023-12-07T07:19:29;5.35;;;1.80;;
74926;SDS011;63488;48.092;-1.640;2023-12-07T07:21:55;4.38;;;1.58;;
74926;SDS011;63488;48.092;-1.640;2023-12-07T07:24:20;5.03;;;1.85;;
74926;SDS011;63488;48.092;-1.640;2023-12-07T07:26:45;4.80;;;1.80;;
74926;SDS011;63488;48.092;-1.640;2023-12-07T07:29:11;4.93;;;1.75;;
74926;SDS011;63488;48.092;-1.640;2023-12-07T07:31:36;3.70;;;1.60;;
74926;SDS011;63488;48.092;-1.640;2023-12-07T07:34:01;4.00;;;1.55;;
74926;SDS011;63488;48.092;-1.640;2023-12-07T07:36:27;4.85;;;1.90;;
74926;SDS011;63488;48.092;-1.640;2023-12-07T07:38:52;5.57;;;1.75;;
74926;SDS011;63488;48.092;-1.640;2023-12-07T07:41:18;4.68;;;1.90;;
74926;SDS011;63488;48.092;-1.640;2023-12-07T07:43:43;3.97;;;1.63;;
74926;SDS011;63488;48.092;-1.640;2023-12-07T07:46:08;4.30;;;1.50;;
74926;SDS011;63488;48.092;-1.640;2023-12-07T07:48:34;4.28;;;1.85;;
74926;SDS011;63488;48.092;-1.640;2023-12-07T07:50:59;4.70;;;1.42;;
74926;SDS011;63488;48.092;-1.640;2023-12-07T07:53:24;3.42;;;1.52;;
74926;SDS011;63488;48.092;-1.640;2023-12-07T07:55:50;4.45;;;1.73;;
74926;SDS011;63488;48.092;-1.640;2023-12-07T07:58:15;5.00;;;1.60;;
74926;SDS011;63488;48.092;-1.640;2023-12-07T08:00:40;4.65;;;1.65;;
74926;SDS011;63488;48.092;-1.640;2023-12-07T08:03:06;4.05;;;1.70;;
74926;SDS011;63488;48.092;-1.640;2023-12-07T08:05:31;3.88;;;1.52;;
74926;SDS011;63488;48.092;-1.640;2023-12-07T08:07:58;3.28;;;1.60;;
74926;SDS011;63488;48.092;-1.640;2023-12-07T08:10:23;4.55;;;1.55;;
74926;SDS011;63488;48.092;-1.640;2023-12-07T08:12:49;4.30;;;1.40;;
74926;SDS011;63488;48.092;-1.640;2023-12-07T08:15:14;2.72;;;1.42;;
74926;SDS011;63488;48.092;-1.640;2023-12-07T08:17:40;5.75;;;1.85;;
74926;SDS011;63488;48.092;-1.640;2023-12-07T08:20:09;4.50;;;1.70;;
74926;SDS011;63488;48.092;-1.640;2023-12-07T08:22:40;5.78;;;2.00;;
74926;SDS011;63488;48.092;-1.640;2023-12-07T08:25:08;4.03;;;1.60;;
74926;SDS011;63488;48.092;-1.640;2023-12-07T08:27:34;4.07;;;1.58;;
74926;SDS011;63488;48.092;-1.640;2023-12-07T08:30:01;1.80;;;1.40;;
74926;SDS011;63488;48.092;-1.640;2023-12-07T08:32:27;3.88;;;1.42;;
74926;SDS011;63488;48.092;-1.640;2023-12-07T08:34:53;4.80;;;1.83;;
74926;SDS011;63488;48.092;-1.640;2023-12-07T08:37:18;4.05;;;1.85;;
74926;SDS011;63488;48.092;-1.640;2023-12-07T08:39:44;3.33;;;1.60;;
74926;SDS011;63488;48.092;-1.640;2023-12-07T08:42:09;4.95;;;1.50;;
74926;SDS011;63488;48.092;-1.640;2023-12-07T08:44:34;5.18;;;1.38;;
74926;SDS011;63488;48.092;-1.640;2023-12-07T08:47:00;3.03;;;1.58;;
74926;SDS011;63488;48.092;-1.640;2023-12-07T08:49:25;4.00;;;1.63;;
74926;SDS011;63488;48.092;-1.640;2023-12-07T08:51:51;2.97;;;1.60;;
74926;SDS011;63488;48.092;-1.640;2023-12-07T08:54:18;4.05;;;1.63;;
74926;SDS011;63488;48.092;-1.640;2023-12-07T08:56:44;2.53;;;1.55;;
74926;SDS011;63488;48.092;-1.640;2023-12-07T08:59:09;3.03;;;1.58;;
74926;SDS011;63488;48.092;-1.640;2023-12-07T09:01:41;3.60;;;1.50;;
74926;SDS011;63488;48.092;-1.640;2023-12-07T09:04:17;5.78;;;1.80;;
74926;SDS011;63488;48.092;-1.640;2023-12-07T09:06:42;3.75;;;1.58;;
74926;SDS011;63488;48.092;-1.640;2023-12-07T09:09:08;5.57;;;1.80;;
74926;SDS011;63488;48.092;-1.640;2023-12-07T09:11:34;4.03;;;1.70;;
74926;SDS011;63488;48.092;-1.640;2023-12-07T09:13:59;5.10;;;1.80;;
74926;SDS011;63488;48.092;-1.640;2023-12-07T09:16:26;3.75;;;1.63;;
74926;SDS011;63488;48.092;-1.640;2023-12-07T09:18:52;2.67;;;1.27;;
74926;SDS011;63488;48.092;-1.640;2023-12-07T09:21:18;2.63;;;1.30;;
74926;SDS011;63488;48.092;-1.640;2023-12-07T09:23:43;2.78;;;1.60;;
74926;SDS011;63488;48.092;-1.640;2023-12-07T09:26:09;2.30;;;1.30;;
74926;SDS011;63488;48.092;-1.640;2023-12-07T09:28:35;3.72;;;1.90;;
74926;SDS011;63488;48.092;-1.640;2023-12-07T09:31:00;3.63;;;1.83;;
74926;SDS011;63488;48.092;-1.640;2023-12-07T09:33:25;4.55;;;1.70;;
74926;SDS011;63488;48.092;-1.640;2023-12-07T09:35:51;3.30;;;1.75;;
74926;SDS011;63488;48.092;-1.640;2023-12-07T09:38:16;3.13;;;1.60;;
74926;SDS011;63488;48.092;-1.640;2023-12-07T09:40:42;4.60;;;1.90;;
74926;SDS011;63488;48.092;-1.640;2023-12-07T09:43:07;4.18;;;1.83;;
74926;SDS011;63488;48.092;-1.640;2023-12-07T09:45:32;2.95;;;1.48;;
74926;SDS011;63488;48.092;-1.640;2023-12-07T09:47:59;3.38;;;1.75;;
74926;SDS011;63488;48.092;-1.640;2023-12-07T09:50:25;6.03;;;2.10;;
74926;SDS011;63488;48.092;-1.640;2023-12-07T09:52:53;3.65;;;1.40;;
74926;SDS011;63488;48.092;-1.640;2023-12-07T09:55:20;4.22;;;2.72;;
74926;SDS011;63488;48.092;-1.640;2023-12-07T09:57:47;3.83;;;1.70;;
74926;SDS011;63488;48.092;-1.640;2023-12-07T10:00:13;3.33;;;1.50;;
74926;SDS011;63488;48.092;-1.640;2023-12-07T10:05:09;2.92;;;1.65;;
74926;SDS011;63488;48.092;-1.640;2023-12-07T10:07:42;4.45;;;1.90;;
74926;SDS011;63488;48.092;-1.640;2023-12-07T10:12:40;3.25;;;1.50;;
74926;SDS011;63488;48.092;-1.640;2023-12-07T10:15:15;3.33;;;1.70;;
74926;SDS011;63488;48.092;-1.640;2023-12-07T10:18:02;3.58;;;1.63;;
74926;SDS011;63488;48.092;-1.640;2023-12-07T10:20:27;2.45;;;1.50;;
74926;SDS011;63488;48.092;-1.640;2023-12-07T10:23:08;3.55;;;1.48;;
74926;SDS011;63488;48.092;-1.640;2023-12-07T10:25:38;3.83;;;2.00;;
74926;SDS011;63488;48.092;-1.640;2023-12-07T10:28:03;4.28;;;1.88;;
74926;SDS011;63488;48.092;-1.640;2023-12-07T10:30:32;3.78;;;1.70;;
74926;SDS011;63488;48.092;-1.640;2023-12-07T10:32:57;4.55;;;1.52;;
74926;SDS011;63488;48.092;-1.640;2023-12-07T10:35:23;3.90;;;1.73;;
74926;SDS011;63488;48.092;-1.640;2023-12-07T10:37:48;2.75;;;1.40;;
74926;SDS011;63488;48.092;-1.640;2023-12-07T10:40:14;3.97;;;1.52;;
74926;SDS011;63488;48.092;-1.640;2023-12-07T10:42:40;3.65;;;1.77;;
74926;SDS011;63488;48.092;-1.640;2023-12-07T10:45:06;2.60;;;1.50;;
74926;SDS011;63488;48.092;-1.640;2023-12-07T10:47:35;2.55;;;1.73;;
74926;SDS011;63488;48.092;-1.640;2023-12-07T10:50:01;2.53;;;1.60;;
74926;SDS011;63488;48.092;-1.640;2023-12-07T10:52:27;3.08;;;1.48;;
74926;SDS011;63488;48.092;-1.640;2023-12-07T10:55:03;3.55;;;1.52;;
74926;SDS011;63488;48.092;-1.640;2023-12-07T10:57:31;2.42;;;1.50;;
74926;SDS011;63488;48.092;-1.640;2023-12-07T10:59:58;3.78;;;1.80;;
74926;SDS011;63488;48.092;-1.640;2023-12-07T11:02:25;5.30;;;1.63;;
74926;SDS011;63488;48.092;-1.640;2023-12-07T11:04:52;3.08;;;1.50;;
74926;SDS011;63488;48.092;-1.640;2023-12-07T11:07:19;2.75;;;1.65;;
74926;SDS011;63488;48.092;-1.640;2023-12-07T11:09:47;3.00;;;1.70;;
74926;SDS011;63488;48.092;-1.640;2023-12-07T11:15:01;2.50;;;1.42;;
74926;SDS011;63488;48.092;-1.640;2023-12-07T11:17:26;3.22;;;1.63;;
74926;SDS011;63488;48.092;-1.640;2023-12-07T11:19:52;4.63;;;1.92;;
74926;SDS011;63488;48.092;-1.640;2023-12-07T11:22:17;3.78;;;1.75;;
74926;SDS011;63488;48.092;-1.640;2023-12-07T11:24:53;2.17;;;1.70;;
74926;SDS011;63488;48.092;-1.640;2023-12-07T11:27:19;2.30;;;1.35;;
74926;SDS011;63488;48.092;-1.640;2023-12-07T11:29:45;3.88;;;1.90;;
74926;SDS011;63488;48.092;-1.640;2023-12-07T11:32:11;2.72;;;1.73;;
74926;SDS011;63488;48.092;-1.640;2023-12-07T11:34:39;3.30;;;1.60;;
74926;SDS011;63488;48.092;-1.640;2023-12-07T11:37:08;5.87;;;1.73;;
74926;SDS011;63488;48.092;-1.640;2023-12-07T11:39:34;4.47;;;1.80;;
74926;SDS011;63488;48.092;-1.640;2023-12-07T11:42:06;4.50;;;2.00;;
74926;SDS011;63488;48.092;-1.640;2023-12-07T11:44:34;2.97;;;1.85;;
74926;SDS011;63488;48.092;-1.640;2023-12-07T11:47:03;4.55;;;1.90;;
74926;SDS011;63488;48.092;-1.640;2023-12-07T11:49:28;2.45;;;1.50;;
74926;SDS011;63488;48.092;-1.640;2023-12-07T11:51:55;3.10;;;1.73;;
74926;SDS011;63488;48.092;-1.640;2023-12-07T11:54:22;3.03;;;1.80;;
74926;SDS011;63488;48.092;-1.640;2023-12-07T11:56:51;2.47;;;1.65;;
74926;SDS011;63488;48.092;-1.640;2023-12-07T11:59:16;3.38;;;1.55;;
74926;SDS011;63488;48.092;-1.640;2023-12-07T12:01:46;3.90;;;1.88;;
74926;SDS011;63488;48.092;-1.640;2023-12-07T12:04:12;5.47;;;2.50;;
74926;SDS011;63488;48.092;-1.640;2023-12-07T12:06:37;3.08;;;1.80;;
74926;SDS011;63488;48.092;-1.640;2023-12-07T12:09:03;2.70;;;1.58;;
74926;SDS011;63488;48.092;-1.640;2023-12-07T12:11:28;5.03;;;1.90;;
74926;SDS011;63488;48.092;-1.640;2023-12-07T12:13:54;3.35;;;1.70;;
74926;SDS011;63488;48.092;-1.640;2023-12-07T12:16:20;2.40;;;1.30;;
74926;SDS011;63488;48.092;-1.640;2023-12-07T12:18:45;4.57;;;2.20;;
74926;SDS011;63488;48.092;-1.640;2023-12-07T12:21:11;3.50;;;1.90;;
74926;SDS011;63488;48.092;-1.640;2023-12-07T12:23:36;2.35;;;1.63;;
74926;SDS011;63488;48.092;-1.640;2023-12-07T12:26:02;6.40;;;2.10;;
74926;SDS011;63488;48.092;-1.640;2023-12-07T12:28:29;2.47;;;1.67;;
74926;SDS011;63488;48.092;-1.640;2023-12-07T12:30:57;3.97;;;1.73;;
74926;SDS011;63488;48.092;-1.640;2023-12-07T12:33:22;4.20;;;1.67;;
74926;SDS011;63488;48.092;-1.640;2023-12-07T12:36:00;2.80;;;1.70;;
74926;SDS011;63488;48.092;-1.640;2023-12-07T12:38:26;5.05;;;1.88;;
74926;SDS011;63488;48.092;-1.640;2023-12-07T12:40:51;4.30;;;2.60;;
74926;SDS011;63488;48.092;-1.640;2023-12-07T12:43:18;3.70;;;1.95;;
74926;SDS011;63488;48.092;-1.640;2023-12-07T12:45:44;3.88;;;1.88;;
74926;SDS011;63488;48.092;-1.640;2023-12-07T12:48:10;3.58;;;1.80;;
74926;SDS011;63488;48.092;-1.640;2023-12-07T12:50:39;5.70;;;2.03;;
74926;SDS011;63488;48.092;-1.640;2023-12-07T12:53:05;2.80;;;1.70;;
74926;SDS011;63488;48.092;-1.640;2023-12-07T12:55:32;3.40;;;1.73;;
74926;SDS011;63488;48.092;-1.640;2023-12-07T12:57:58;3.38;;;2.00;;
74926;SDS011;63488;48.092;-1.640;2023-12-07T13:00:26;4.60;;;2.60;;
74926;SDS011;63488;48.092;-1.640;2023-12-07T13:02:52;4.05;;;1.90;;
74926;SDS011;63488;48.092;-1.640;2023-12-07T13:05:17;3.15;;;1.73;;
74926;SDS011;63488;48.092;-1.640;2023-12-07T13:07:45;3.58;;;1.70;;
74926;SDS011;63488;48.092;-1.640;2023-12-07T13:10:14;2.83;;;1.85;;
74926;SDS011;63488;48.092;-1.640;2023-12-07T13:12:39;4.40;;;2.20;;
74926;SDS011;63488;48.092;-1.640;2023-12-07T13:15:05;4.40;;;2.25;;
74926;SDS011;63488;48.092;-1.640;2023-12-07T13:17:30;3.13;;;1.90;;
74926;SDS011;63488;48.092;-1.640;2023-12-07T13:19:56;3.40;;;1.90;;
74926;SDS011;63488;48.092;-1.640;2023-12-07T13:22:22;3.28;;;1.85;;
74926;SDS011;63488;48.092;-1.640;2023-12-07T13:24:48;3.85;;;1.80;;
74926;SDS011;63488;48.092;-1.640;2023-12-07T13:30:21;5.68;;;2.15;;
74926;SDS011;63488;48.092;-1.640;2023-12-07T13:32:53;6.97;;;1.90;;
74926;SDS011;63488;48.092;-1.640;2023-12-07T13:35:22;3.53;;;2.38;;
74926;SDS011;63488;48.092;-1.640;2023-12-07T13:37:49;3.78;;;2.00;;
74926;SDS011;63488;48.092;-1.640;2023-12-07T13:40:16;5.35;;;2.30;;
74926;SDS011;63488;48.092;-1.640;2023-12-07T13:42:43;5.03;;;2.38;;
74926;SDS011;63488;48.092;-1.640;2023-12-07T13:45:10;3.90;;;1.88;;
74926;SDS011;63488;48.092;-1.640;2023-12-07T13:47:37;3.90;;;2.10;;
74926;SDS011;63488;48.092;-1.640;2023-12-07T13:50:04;2.90;;;1.80;;
74926;SDS011;63488;48.092;-1.640;2023-12-07T13:52:31;4.00;;;1.90;;
74926;SDS011;63488;48.092;-1.640;2023-12-07T13:54:58;3.10;;;2.00;;
74926;SDS011;63488;48.092;-1.640;2023-12-07T13:57:25;4.35;;;1.88;;
74926;SDS011;63488;48.092;-1.640;2023-12-07T13:59:53;3.53;;;2.00;;
74926;SDS011;63488;48.092;-1.640;2023-12-07T14:02:23;3.75;;;2.17;;
74926;SDS011;63488;48.092;-1.640;2023-12-07T14:04:51;5.55;;;1.88;;
74926;SDS011;63488;48.092;-1.640;2023-12-07T14:07:19;3.88;;;2.30;;
74926;SDS011;63488;48.092;-1.640;2023-12-07T14:09:47;3.53;;;1.90;;
74926;SDS011;63488;48.092;-1.640;2023-12-07T14:12:15;5.72;;;2.20;;
74926;SDS011;63488;48.092;-1.640;2023-12-07T14:14:42;4.03;;;2.10;;
74926;SDS011;63488;48.092;-1.640;2023-12-07T14:17:15;2.88;;;1.88;;
74926;SDS011;63488;48.092;-1.640;2023-12-07T14:19:44;3.78;;;2.20;;
74926;SDS011;63488;48.092;-1.640;2023-12-07T14:22:13;3.83;;;1.83;;
74926;SDS011;63488;48.092;-1.640;2023-12-07T14:24:40;2.35;;;1.90;;
74926;SDS011;63488;48.092;-1.640;2023-12-07T14:27:07;5.55;;;1.98;;
74926;SDS011;63488;48.092;-1.640;2023-12-07T14:29:34;3.85;;;2.00;;
74926;SDS011;63488;48.092;-1.640;2023-12-07T14:32:05;4.90;;;2.42;;
74926;SDS011;63488;48.092;-1.640;2023-12-07T14:34:32;4.53;;;2.20;;
74926;SDS011;63488;48.092;-1.640;2023-12-07T14:36:58;6.18;;;2.45;;
74926;SDS011;63488;48.092;-1.640;2023-12-07T14:39:25;4.40;;;2.40;;
74926;SDS011;63488;48.092;-1.640;2023-12-07T14:41:51;3.92;;;2.20;;